Kassel-Calden Airport EDVK

Flugplatz Daten

Name: Kassel-Calden Airport

Ident: EDVK

Lat: 51,40833282

Long: 9,37749958

Platzhöhe: 909 ft

IataCode: KSF

City: Kassel

Metar

2021/10/20 13:50
EDVK 201350Z 19018G28KT 9999 -DZ FEW025 BKN038 16/12 Q1005

Taf

Gewünschte Webcam nicht vorhanden? Dann fügen Sie eine hinzu. Sie wird dann so schnell wie möglich freigeschaltet
Url: Title: